< < Back
Terminal Aerodrome Forecast


Current Version              Previous Versions:   1  2  3  4  5  6  7  8  9  

Terminal Aerodrome Forecast

932
FTUS44 KMRX 171720
TAFCHA
TAF
KCHA 171720Z 1718/1818 36009KT P6SM OVC020
     FM172200 36007KT P6SM SCT025 BKN035
      TEMPO 1722/1724 BKN025
     FM180000 00000KT P6SM SCT035 BKN200
     FM181400 02003KT P6SM OVC100=

Latest METAR

240
SAUS80 KWBC 172100 RRC
MTRCHA
METAR KCHA 172053Z 06006KT 10SM FEW028 OVC230 08/01 A3018 RMK AO2 SLP222
T00780011 56014


USA.gov is the U.S. government's official web portal to all federal, state and local government web resources and services.